createdAt,value
2018-09-29T00:00:46.443Z,4.40
2018-09-29T00:03:14.949Z,4.87
2018-09-29T00:05:43.454Z,4.50
2018-09-29T00:08:12.132Z,4.62
2018-09-29T00:10:40.562Z,5.22
2018-09-29T00:13:09.153Z,5.37
2018-09-29T00:15:37.590Z,5.08
2018-09-29T00:18:06.238Z,4.28
2018-09-29T00:20:34.716Z,4.87
2018-09-29T00:23:03.180Z,4.05
2018-09-29T00:25:31.625Z,4.70
2018-09-29T00:28:00.111Z,4.15
2018-09-29T00:30:28.599Z,4.37
2018-09-29T00:32:57.044Z,5.45
2018-09-29T00:35:25.616Z,3.12
2018-09-29T00:37:54.076Z,4.45
2018-09-29T00:40:22.592Z,4.00
2018-09-29T00:42:51.192Z,4.47
2018-09-29T00:45:19.645Z,3.85
2018-09-29T00:47:48.093Z,3.60
2018-09-29T00:50:16.588Z,5.00
2018-09-29T00:52:45.067Z,4.45
2018-09-29T00:55:13.659Z,4.03
2018-09-29T00:57:42.111Z,4.40
2018-09-29T01:00:10.536Z,4.10
2018-09-29T01:02:38.984Z,5.72
2018-09-29T01:05:07.522Z,3.87
2018-09-29T01:07:35.981Z,4.47
2018-09-29T01:10:04.474Z,5.45
2018-09-29T01:12:33.678Z,4.60
2018-09-29T01:15:02.345Z,5.62
2018-09-29T01:17:31.033Z,4.30
2018-09-29T01:19:59.518Z,5.03
2018-09-29T01:22:28.099Z,5.47
2018-09-29T01:24:56.609Z,4.90
2018-09-29T01:27:25.078Z,6.37
2018-09-29T01:29:53.532Z,5.20
2018-09-29T01:32:22.002Z,4.22
2018-09-29T01:34:50.500Z,5.50
2018-09-29T01:37:18.980Z,6.90
2018-09-29T01:39:47.445Z,6.28
2018-09-29T01:42:16.084Z,7.58
2018-09-29T01:44:44.525Z,7.10
2018-09-29T01:47:13.139Z,5.17
2018-09-29T01:49:41.620Z,6.97
2018-09-29T01:52:10.076Z,6.10
2018-09-29T01:54:38.520Z,6.42
2018-09-29T01:57:07.017Z,5.37
2018-09-29T01:59:35.461Z,6.30
2018-09-29T02:02:04.226Z,5.78
2018-09-29T02:04:32.730Z,5.00
2018-09-29T02:07:01.195Z,5.78
2018-09-29T02:09:29.649Z,5.40
2018-09-29T02:11:58.127Z,7.80
2018-09-29T02:14:26.652Z,7.12
2018-09-29T02:16:55.127Z,6.03
2018-09-29T02:19:23.621Z,5.67
2018-09-29T02:21:52.060Z,5.22
2018-09-29T02:24:20.518Z,7.47
2018-09-29T02:26:49.019Z,6.70
2018-09-29T02:29:17.476Z,5.08
2018-09-29T02:31:45.994Z,6.08
2018-09-29T02:34:14.598Z,6.72
2018-09-29T02:36:43.037Z,6.15
2018-09-29T02:39:12.581Z,5.30
2018-09-29T02:41:41.085Z,6.80
2018-09-29T02:44:10.174Z,8.15
2018-09-29T02:46:38.701Z,5.78
2018-09-29T02:49:07.201Z,7.37
2018-09-29T02:51:35.662Z,6.47
2018-09-29T02:54:04.400Z,8.05
2018-09-29T02:56:32.886Z,7.87
2018-09-29T02:59:01.409Z,7.72
2018-09-29T03:01:29.892Z,7.97
2018-09-29T03:03:58.661Z,7.97
2018-09-29T03:06:27.201Z,8.25
2018-09-29T03:08:55.769Z,8.00
2018-09-29T03:11:24.245Z,7.25
2018-09-29T03:13:52.698Z,7.85
2018-09-29T03:16:21.150Z,6.75
2018-09-29T03:18:49.676Z,8.30
2018-09-29T03:21:18.105Z,6.85
2018-09-29T03:23:46.568Z,6.12
2018-09-29T03:26:15.043Z,7.55
2018-09-29T03:28:43.496Z,7.10
2018-09-29T03:31:12.050Z,7.22
2018-09-29T03:33:40.513Z,9.53
2018-09-29T03:36:08.959Z,7.05
2018-09-29T03:38:37.396Z,8.38
2018-09-29T03:41:05.878Z,6.60
2018-09-29T03:43:34.319Z,7.25
2018-09-29T03:46:02.818Z,8.13
2018-09-29T03:48:31.311Z,7.30
2018-09-29T03:50:59.822Z,8.03
2018-09-29T03:53:28.314Z,7.37
2018-09-29T03:55:56.798Z,7.37
2018-09-29T03:58:25.250Z,8.13
2018-09-29T04:00:53.726Z,8.88
2018-09-29T04:03:22.214Z,8.35
2018-09-29T04:05:50.697Z,7.35
2018-09-29T04:08:19.145Z,7.50
2018-09-29T04:10:47.623Z,8.03
2018-09-29T04:13:16.085Z,7.90
2018-09-29T04:15:44.833Z,7.97
2018-09-29T04:18:13.313Z,7.28
2018-09-29T04:20:41.898Z,7.72
2018-09-29T04:23:10.365Z,7.10
2018-09-29T04:25:38.850Z,8.30
2018-09-29T04:28:07.310Z,8.90
2018-09-29T04:30:35.785Z,8.75
2018-09-29T04:33:04.261Z,7.22
2018-09-29T04:35:32.728Z,7.05
2018-09-29T04:38:01.179Z,8.73
2018-09-29T04:40:29.744Z,8.40
2018-09-29T04:42:58.371Z,7.40
2018-09-29T04:45:26.919Z,8.45
2018-09-29T04:47:55.397Z,7.55
2018-09-29T04:50:23.836Z,8.10
2018-09-29T04:52:52.288Z,8.08
2018-09-29T04:55:20.776Z,9.10
2018-09-29T04:57:49.243Z,7.92
2018-09-29T05:00:17.692Z,7.45
2018-09-29T05:02:46.177Z,7.87
2018-09-29T05:05:14.685Z,7.92
2018-09-29T05:07:43.183Z,6.85
2018-09-29T05:10:11.947Z,7.05
2018-09-29T05:12:40.406Z,8.50
2018-09-29T05:15:08.913Z,7.40
2018-09-29T05:17:37.395Z,6.85
2018-09-29T05:20:06.148Z,7.83
2018-09-29T05:22:34.613Z,7.85
2018-09-29T05:25:03.093Z,7.15
2018-09-29T05:27:31.526Z,7.58
2018-09-29T05:30:00.018Z,7.83
2018-09-29T05:32:28.695Z,6.60
2018-09-29T05:34:57.162Z,7.25
2018-09-29T05:37:25.640Z,7.95
2018-09-29T05:39:54.119Z,7.97
2018-09-29T05:42:22.580Z,8.78
2018-09-29T05:44:51.030Z,8.33
2018-09-29T05:47:19.501Z,7.25
2018-09-29T05:49:47.961Z,8.13
2018-09-29T05:52:16.513Z,8.43
2018-09-29T05:54:44.982Z,7.90
2018-09-29T05:57:13.441Z,9.33
2018-09-29T05:59:41.918Z,8.18
2018-09-29T06:02:10.415Z,9.63
2018-09-29T06:04:38.919Z,9.33
2018-09-29T06:07:07.632Z,10.98
2018-09-29T06:09:36.020Z,12.60
2018-09-29T06:12:04.466Z,14.50
2018-09-29T06:14:32.929Z,17.65
2018-09-29T06:17:01.428Z,20.08
2018-09-29T06:19:29.975Z,22.65
2018-09-29T06:21:58.452Z,23.38
2018-09-29T06:24:26.943Z,21.77
2018-09-29T06:26:55.399Z,24.50
2018-09-29T06:29:23.869Z,24.02
2018-09-29T06:31:52.351Z,22.62
2018-09-29T06:34:20.875Z,20.35
2018-09-29T06:36:49.334Z,15.83
2018-09-29T06:39:17.807Z,8.45
2018-09-29T06:41:46.292Z,8.53
2018-09-29T06:44:14.733Z,7.67
2018-09-29T06:46:43.273Z,8.25
2018-09-29T06:49:11.865Z,6.22
2018-09-29T06:51:40.322Z,5.12
2018-09-29T06:54:08.780Z,5.70
2018-09-29T06:56:37.245Z,4.20
2018-09-29T06:59:05.922Z,4.72
2018-09-29T07:01:34.424Z,4.20
2018-09-29T07:04:02.907Z,4.80
2018-09-29T07:06:31.400Z,4.03
2018-09-29T07:08:59.986Z,5.42
2018-09-29T07:11:28.467Z,4.30
2018-09-29T07:13:56.919Z,4.77
2018-09-29T07:16:25.417Z,4.17
2018-09-29T07:18:53.864Z,4.65
2018-09-29T07:21:22.360Z,5.23
2018-09-29T07:23:50.868Z,4.43
2018-09-29T07:26:19.434Z,4.97
2018-09-29T07:28:47.896Z,3.97
2018-09-29T07:31:16.436Z,5.40
2018-09-29T07:33:44.853Z,5.13
2018-09-29T07:36:13.329Z,4.57
2018-09-29T07:38:41.838Z,4.27
2018-09-29T07:41:10.372Z,4.60
2018-09-29T07:43:39.451Z,4.50
2018-09-29T07:46:08.227Z,4.73
2018-09-29T07:48:36.744Z,3.70
2018-09-29T07:51:05.509Z,4.03
2018-09-29T07:53:33.990Z,5.90
2018-09-29T07:56:02.519Z,3.20
2018-09-29T07:58:30.945Z,4.13
2018-09-29T08:00:59.454Z,4.57
2018-09-29T08:03:27.922Z,3.93
2018-09-29T08:05:56.436Z,4.63
2018-09-29T08:08:25.072Z,4.77
2018-09-29T08:10:53.525Z,3.40
2018-09-29T08:13:22.004Z,4.73
2018-09-29T08:15:50.490Z,4.23
2018-09-29T08:18:18.935Z,4.10
2018-09-29T08:20:47.386Z,2.67
2018-09-29T08:23:15.885Z,4.00
2018-09-29T08:25:45.604Z,3.70
2018-09-29T08:28:14.115Z,4.10
2018-09-29T08:30:42.637Z,3.80
2018-09-29T08:33:11.691Z,4.90
2018-09-29T08:35:40.149Z,3.23
2018-09-29T08:38:08.731Z,3.10
2018-09-29T08:40:37.216Z,4.00
2018-09-29T08:43:05.707Z,4.40
2018-09-29T08:45:34.203Z,2.83
2018-09-29T08:48:02.656Z,3.77
2018-09-29T08:50:31.233Z,5.50
2018-09-29T08:52:59.703Z,4.13
2018-09-29T08:55:28.296Z,2.83
2018-09-29T08:57:57.087Z,3.00
2018-09-29T09:00:25.593Z,3.80
2018-09-29T09:02:54.073Z,2.90
2018-09-29T09:05:22.621Z,2.57
2018-09-29T09:07:51.235Z,2.77
2018-09-29T09:10:19.721Z,2.93
2018-09-29T09:12:48.190Z,2.77
2018-09-29T09:15:16.697Z,2.40
2018-09-29T09:17:45.183Z,2.97
2018-09-29T09:20:13.642Z,2.27
2018-09-29T09:22:42.136Z,2.07
2018-09-29T09:25:10.652Z,3.27
2018-09-29T09:27:39.126Z,2.83
2018-09-29T09:30:07.721Z,2.93
2018-09-29T09:32:36.167Z,1.87
2018-09-29T09:35:04.844Z,1.70
2018-09-29T09:37:33.330Z,2.40
2018-09-29T09:40:01.829Z,2.13
2018-09-29T09:42:30.498Z,3.00
2018-09-29T09:44:58.979Z,2.20
2018-09-29T09:47:27.506Z,2.97
2018-09-29T09:49:55.954Z,2.50
2018-09-29T09:52:24.458Z,3.20
2018-09-29T09:54:53.006Z,1.93
2018-09-29T09:57:21.484Z,1.93
2018-09-29T09:59:50.096Z,1.20
2018-09-29T10:02:23.977Z,1.20
2018-09-29T10:04:52.477Z,1.70
2018-09-29T10:07:20.935Z,2.77
2018-09-29T10:09:49.422Z,1.93
2018-09-29T10:12:17.916Z,2.50
2018-09-29T10:14:46.387Z,3.10
2018-09-29T10:17:14.870Z,2.63
2018-09-29T10:19:43.349Z,2.43
2018-09-29T10:22:11.857Z,1.50
2018-09-29T10:24:40.361Z,1.60
2018-09-29T10:27:08.864Z,2.00
2018-09-29T10:29:37.323Z,1.70
2018-09-29T10:32:05.990Z,1.23
2018-09-29T10:34:34.478Z,1.27
2018-09-29T10:37:02.957Z,1.30
2018-09-29T10:39:31.419Z,1.70
2018-09-29T10:41:59.893Z,2.20
2018-09-29T10:44:28.368Z,2.43
2018-09-29T10:46:56.952Z,2.50
2018-09-29T10:49:25.543Z,2.87
2018-09-29T10:51:54.019Z,2.77
2018-09-29T10:54:22.492Z,2.40
2018-09-29T10:56:50.989Z,2.07
2018-09-29T10:59:19.786Z,1.63
2018-09-29T11:01:48.332Z,1.70
2018-09-29T11:04:16.848Z,2.43
2018-09-29T11:06:45.392Z,2.10
2018-09-29T11:09:14.099Z,1.30
2018-09-29T11:11:42.815Z,1.83
2018-09-29T11:14:11.309Z,2.30
2018-09-29T11:16:39.888Z,1.80
2018-09-29T11:19:08.384Z,1.60
2018-09-29T11:21:36.843Z,2.50
2018-09-29T11:24:05.325Z,2.07
2018-09-29T11:26:33.901Z,2.80
2018-09-29T11:29:02.358Z,2.37
2018-09-29T11:31:30.825Z,2.10
2018-09-29T11:33:59.453Z,1.20
2018-09-29T11:36:27.899Z,1.40
2018-09-29T11:38:56.358Z,1.40
2018-09-29T11:41:24.823Z,1.60
2018-09-29T11:43:53.444Z,1.53
2018-09-29T11:46:21.924Z,1.33
2018-09-29T11:48:50.400Z,1.57
2018-09-29T11:51:18.861Z,0.90
2018-09-29T11:53:47.327Z,1.27
2018-09-29T11:56:15.862Z,1.13
2018-09-29T11:58:44.309Z,1.13
2018-09-29T12:01:12.798Z,2.10
2018-09-29T12:03:41.344Z,2.17
2018-09-29T12:06:09.829Z,1.10
2018-09-29T12:08:38.341Z,1.63
2018-09-29T12:11:07.220Z,1.33
2018-09-29T12:13:35.668Z,1.27
2018-09-29T12:16:04.187Z,0.80
2018-09-29T12:18:32.747Z,1.97
2018-09-29T12:21:01.283Z,1.30
2018-09-29T12:23:29.797Z,1.20
2018-09-29T12:25:58.283Z,0.83
2018-09-29T12:28:26.781Z,1.50
2018-09-29T12:30:55.267Z,2.00
2018-09-29T12:33:23.831Z,1.27
2018-09-29T12:35:52.272Z,0.90
2018-09-29T12:38:20.723Z,1.43
2018-09-29T12:40:49.868Z,1.73
2018-09-29T12:43:18.354Z,0.87
2018-09-29T12:45:46.790Z,1.20
2018-09-29T12:48:15.448Z,1.23
2018-09-29T12:50:43.947Z,1.70
2018-09-29T12:53:12.419Z,0.90
2018-09-29T12:55:40.908Z,1.27
2018-09-29T12:58:09.374Z,1.63
2018-09-29T13:00:37.847Z,1.43
2018-09-29T13:03:06.000Z,1.30
2018-09-29T13:05:34.497Z,1.43
2018-09-29T13:08:02.947Z,1.33
2018-09-29T13:10:31.422Z,1.00
2018-09-29T13:12:59.890Z,2.03
2018-09-29T13:15:28.340Z,1.57
2018-09-29T13:17:56.867Z,0.90
2018-09-29T13:20:25.316Z,1.00
2018-09-29T13:22:53.775Z,1.77
2018-09-29T13:25:23.063Z,1.83
2018-09-29T13:27:51.536Z,1.03
2018-09-29T13:30:19.970Z,1.63
2018-09-29T13:32:48.450Z,1.70
2018-09-29T13:35:16.903Z,0.80
2018-09-29T13:37:45.377Z,1.33
2018-09-29T13:40:13.879Z,0.90
2018-09-29T13:42:42.339Z,1.33
2018-09-29T13:45:10.858Z,1.50
2018-09-29T13:47:39.415Z,1.43
2018-09-29T13:50:07.929Z,1.00
2018-09-29T13:52:36.476Z,1.10
2018-09-29T13:55:05.071Z,1.10
2018-09-29T13:57:33.672Z,1.47
2018-09-29T14:00:02.143Z,1.07
2018-09-29T14:02:31.391Z,1.07
2018-09-29T14:04:59.875Z,1.70
2018-09-29T14:07:28.333Z,1.50
2018-09-29T14:09:56.833Z,1.40
2018-09-29T14:12:25.294Z,1.43
2018-09-29T14:14:53.762Z,1.90
2018-09-29T14:17:22.225Z,1.23
2018-09-29T14:19:50.711Z,1.30
2018-09-29T14:22:19.206Z,1.57
2018-09-29T14:24:47.681Z,2.13
2018-09-29T14:27:16.139Z,1.73
2018-09-29T14:29:44.599Z,1.43
2018-09-29T14:32:13.064Z,1.37
2018-09-29T14:34:41.576Z,1.30
2018-09-29T14:37:10.107Z,1.10
2018-09-29T14:39:38.603Z,1.50
2018-09-29T14:42:07.075Z,1.10
2018-09-29T14:44:35.676Z,1.33
2018-09-29T14:47:04.223Z,1.90
2018-09-29T14:49:32.680Z,1.37
2018-09-29T14:52:01.108Z,1.20
2018-09-29T14:54:29.605Z,1.27
2018-09-29T14:56:59.409Z,1.20
2018-09-29T14:59:27.960Z,1.40
2018-09-29T15:01:56.449Z,1.53
2018-09-29T15:04:25.137Z,1.50
2018-09-29T15:06:53.928Z,1.20
2018-09-29T15:09:22.428Z,1.73
2018-09-29T15:11:50.915Z,1.47
2018-09-29T15:14:19.532Z,1.40
2018-09-29T15:16:48.100Z,1.73
2018-09-29T15:19:16.583Z,1.47
2018-09-29T15:21:45.055Z,1.20
2018-09-29T15:24:13.620Z,1.70
2018-09-29T15:26:42.067Z,1.53
2018-09-29T15:29:10.544Z,1.23
2018-09-29T15:31:39.012Z,1.33
2018-09-29T15:34:07.491Z,0.97
2018-09-29T15:36:35.960Z,1.30
2018-09-29T15:39:07.390Z,1.07
2018-09-29T15:41:35.824Z,1.43
2018-09-29T15:44:04.339Z,1.60
2018-09-29T15:46:32.816Z,1.60
2018-09-29T15:49:01.285Z,1.33
2018-09-29T15:51:29.871Z,1.07
2018-09-29T15:53:58.368Z,1.10
2018-09-29T15:56:26.824Z,1.20
2018-09-29T15:58:55.288Z,0.80
2018-09-29T16:01:23.794Z,1.00
2018-09-29T16:03:52.256Z,2.10
2018-09-29T16:06:20.895Z,1.40
2018-09-29T16:08:49.371Z,1.30
2018-09-29T16:11:17.826Z,1.60
2018-09-29T16:13:46.284Z,2.20
2018-09-29T16:16:14.784Z,1.57
2018-09-29T16:18:43.390Z,1.07
2018-09-29T16:21:11.954Z,1.80
2018-09-29T16:23:40.422Z,1.10
2018-09-29T16:26:08.900Z,1.23
2018-09-29T16:28:37.388Z,1.23
2018-09-29T16:31:06.123Z,0.87
2018-09-29T16:33:34.621Z,1.90
2018-09-29T16:36:03.110Z,0.90
2018-09-29T16:38:31.700Z,1.50
2018-09-29T16:41:00.103Z,2.50
2018-09-29T16:43:28.680Z,3.03
2018-09-29T16:45:57.183Z,3.03
2018-09-29T16:48:25.673Z,0.83
2018-09-29T16:50:54.146Z,1.40
2018-09-29T16:53:22.627Z,1.10
2018-09-29T16:55:51.155Z,1.00
2018-09-29T16:58:19.656Z,1.07
2018-09-29T17:00:48.287Z,1.67
2018-09-29T17:03:16.787Z,1.20
2018-09-29T17:05:45.258Z,1.23
2018-09-29T17:08:13.837Z,1.75
2018-09-29T17:10:42.310Z,1.07
2018-09-29T17:13:10.800Z,1.72
2018-09-29T17:15:39.305Z,2.05
2018-09-29T17:18:07.986Z,1.42
2018-09-29T17:20:36.439Z,2.30
2018-09-29T17:23:04.970Z,1.80
2018-09-29T17:25:33.435Z,1.82
2018-09-29T17:28:01.898Z,2.12
2018-09-29T17:30:30.461Z,2.22
2018-09-29T17:32:58.915Z,2.83
2018-09-29T17:35:27.748Z,2.58
2018-09-29T17:37:56.259Z,3.62
2018-09-29T17:40:24.817Z,2.20
2018-09-29T17:42:53.277Z,2.87
2018-09-29T17:45:21.883Z,1.57
2018-09-29T17:47:50.352Z,2.35
2018-09-29T17:50:18.779Z,2.22
2018-09-29T17:52:47.315Z,1.98
2018-09-29T17:55:16.223Z,2.12
2018-09-29T17:57:44.690Z,2.83
2018-09-29T18:00:13.204Z,2.65
2018-09-29T18:02:41.669Z,2.40
2018-09-29T18:05:10.173Z,2.75
2018-09-29T18:07:38.689Z,2.72
2018-09-29T18:10:07.238Z,2.37
2018-09-29T18:12:35.707Z,2.17
2018-09-29T18:15:04.737Z,2.83
2018-09-29T18:17:34.283Z,3.40
2018-09-29T18:20:02.983Z,3.55
2018-09-29T18:22:31.489Z,3.65
2018-09-29T18:24:59.965Z,3.62
2018-09-29T18:27:28.420Z,4.20
2018-09-29T18:29:56.902Z,4.42
2018-09-29T18:32:25.371Z,7.50
2018-09-29T18:34:53.866Z,6.37
2018-09-29T18:37:22.456Z,7.35
2018-09-29T18:39:50.869Z,7.70
2018-09-29T18:42:19.337Z,10.60
2018-09-29T18:44:47.885Z,7.72
2018-09-29T18:47:16.328Z,8.78
2018-09-29T18:49:44.838Z,7.90
2018-09-29T18:52:13.314Z,7.10
2018-09-29T18:54:41.790Z,8.45
2018-09-29T18:57:10.274Z,8.95
2018-09-29T18:59:38.764Z,8.83
2018-09-29T19:02:07.315Z,8.35
2018-09-29T19:04:35.803Z,8.85
2018-09-29T19:07:04.259Z,8.90
2018-09-29T19:09:32.840Z,9.40
2018-09-29T19:12:01.491Z,7.72
2018-09-29T19:14:29.937Z,6.58
2018-09-29T19:16:58.697Z,7.70
2018-09-29T19:19:27.236Z,8.33
2018-09-29T19:21:55.810Z,10.80
2018-09-29T19:24:24.260Z,10.75
2018-09-29T19:26:52.765Z,11.03
2018-09-29T19:29:21.245Z,11.78
2018-09-29T19:31:49.729Z,10.60
2018-09-29T19:34:18.248Z,11.20
2018-09-29T19:36:46.989Z,13.98
2018-09-29T19:39:15.571Z,12.93
2018-09-29T19:41:44.067Z,13.55
2018-09-29T19:44:12.574Z,12.47
2018-09-29T19:46:41.106Z,12.30
2018-09-29T19:49:09.609Z,15.15
2018-09-29T19:51:38.111Z,11.35
2018-09-29T19:54:06.608Z,11.93
2018-09-29T19:56:35.076Z,10.68
2018-09-29T19:59:03.709Z,15.08
2018-09-29T20:01:32.306Z,14.03
2018-09-29T20:04:01.081Z,15.32
2018-09-29T20:06:29.683Z,19.23
2018-09-29T20:08:58.151Z,16.73
2018-09-29T20:11:26.642Z,20.30
2018-09-29T20:13:55.176Z,19.52
2018-09-29T20:16:28.558Z,18.00
2018-09-29T20:18:57.075Z,18.12
2018-09-29T20:21:25.561Z,19.45
2018-09-29T20:23:54.046Z,17.17
2018-09-29T20:26:22.533Z,17.60
2018-09-29T20:28:51.028Z,14.90
2018-09-29T20:31:19.723Z,12.90
2018-09-29T20:33:48.309Z,12.75
2018-09-29T20:36:16.771Z,10.20
2018-09-29T20:38:45.247Z,10.10
2018-09-29T20:41:13.795Z,10.68
2018-09-29T20:43:42.291Z,10.93
2018-09-29T20:46:10.788Z,10.30
2018-09-29T20:48:39.264Z,9.18
2018-09-29T20:51:07.727Z,9.40
2018-09-29T20:53:36.753Z,11.12
2018-09-29T20:56:05.236Z,11.48
2018-09-29T20:58:33.711Z,10.58
2018-09-29T21:01:02.215Z,11.22
2018-09-29T21:03:30.708Z,12.68
2018-09-29T21:05:59.692Z,10.75
2018-09-29T21:08:28.154Z,11.75
2018-09-29T21:10:56.623Z,11.45
2018-09-29T21:13:25.272Z,12.55
2018-09-29T21:15:53.611Z,12.47
2018-09-29T21:18:22.103Z,11.25
2018-09-29T21:20:51.574Z,11.93
2018-09-29T21:23:20.044Z,10.88
2018-09-29T21:25:48.557Z,10.88
2018-09-29T21:28:17.028Z,11.15
2018-09-29T21:30:45.544Z,12.13
2018-09-29T21:33:14.056Z,11.33
2018-09-29T21:35:42.558Z,13.00
2018-09-29T21:38:11.021Z,10.75
2018-09-29T21:40:39.483Z,10.23
2018-09-29T21:43:08.004Z,11.40
2018-09-29T21:45:36.452Z,11.65
2018-09-29T21:48:05.284Z,10.70
2018-09-29T21:50:33.739Z,11.63
2018-09-29T21:53:02.215Z,12.13
2018-09-29T21:55:31.632Z,14.00
2018-09-29T21:58:00.126Z,12.30
2018-09-29T22:00:34.419Z,15.68
2018-09-29T22:03:02.887Z,15.32
2018-09-29T22:05:31.338Z,17.37
2018-09-29T22:07:59.815Z,17.40
2018-09-29T22:10:28.281Z,15.43
2018-09-29T22:12:56.723Z,14.87
2018-09-29T22:15:25.214Z,16.65
2018-09-29T22:17:53.685Z,16.17
2018-09-29T22:20:22.131Z,15.48
2018-09-29T22:22:50.624Z,15.10
2018-09-29T22:25:19.211Z,18.10
2018-09-29T22:27:47.699Z,14.98
2018-09-29T22:30:16.171Z,16.17
2018-09-29T22:32:44.640Z,14.13
2018-09-29T22:35:13.127Z,15.03
2018-09-29T22:37:41.861Z,14.53
2018-09-29T22:40:10.349Z,14.23
2018-09-29T22:42:38.804Z,15.88
2018-09-29T22:45:07.440Z,16.17
2018-09-29T22:47:35.921Z,16.80
2018-09-29T22:50:04.425Z,17.73
2018-09-29T22:52:32.878Z,18.17
2018-09-29T22:55:01.936Z,23.42
2018-09-29T22:57:30.429Z,20.40
2018-09-29T22:59:59.007Z,21.27
2018-09-29T23:02:27.457Z,20.40
2018-09-29T23:04:55.957Z,19.50
2018-09-29T23:07:24.419Z,27.77
2018-09-29T23:09:52.885Z,27.45
2018-09-29T23:12:21.366Z,30.60
2018-09-29T23:14:49.826Z,32.00
2018-09-29T23:17:18.312Z,45.83
2018-09-29T23:19:46.791Z,41.20
2018-09-29T23:22:15.275Z,36.25
2018-09-29T23:24:43.760Z,40.50
2018-09-29T23:27:12.359Z,38.38
2018-09-29T23:29:40.937Z,36.80
2018-09-29T23:32:09.381Z,32.98
2018-09-29T23:34:37.816Z,31.12
2018-09-29T23:37:06.324Z,27.02
2018-09-29T23:39:34.754Z,26.50
2018-09-29T23:42:03.264Z,27.82
2018-09-29T23:44:31.746Z,31.40
2018-09-29T23:47:00.298Z,31.50
2018-09-29T23:49:28.745Z,33.25
2018-09-29T23:51:57.237Z,31.42
2018-09-29T23:54:25.795Z,33.85
2018-09-29T23:56:54.280Z,34.13
2018-09-29T23:59:22.792Z,31.50
